createdAt,value
2022-12-08T00:00:16.119Z,-0.08
2022-12-08T00:03:03.883Z,-0.05
2022-12-08T00:05:49.683Z,-0.09
2022-12-08T00:08:35.451Z,-0.04
2022-12-08T00:11:02.572Z,-0.07
2022-12-08T00:13:29.907Z,-0.10
2022-12-08T00:16:03.108Z,0.05
2022-12-08T00:18:30.463Z,0.02
2022-12-08T00:20:57.775Z,-0.01
2022-12-08T00:23:25.365Z,0.05
2022-12-08T00:25:52.464Z,0.06
2022-12-08T00:28:19.885Z,-0.03
2022-12-08T00:30:46.989Z,-0.06
2022-12-08T00:33:14.384Z,0.01
2022-12-08T00:35:43.199Z,-0.15
2022-12-08T00:38:10.776Z,-0.10
2022-12-08T00:40:37.801Z,-0.08
2022-12-08T00:43:05.207Z,-0.16
2022-12-08T00:45:32.296Z,-0.12
2022-12-08T00:47:59.790Z,-0.09
2022-12-08T00:50:26.719Z,-0.10
2022-12-08T00:52:54.033Z,-0.10
2022-12-08T00:55:21.140Z,-0.04
2022-12-08T00:57:48.545Z,-0.11
2022-12-08T01:00:15.831Z,-0.09
2022-12-08T01:02:43.730Z,-0.03
2022-12-08T01:05:10.713Z,-0.12
2022-12-08T01:07:38.248Z,-0.15
2022-12-08T01:10:05.950Z,-0.15
2022-12-08T01:12:33.556Z,-0.21
2022-12-08T01:15:02.463Z,-0.17
2022-12-08T01:17:31.185Z,-0.15
2022-12-08T01:19:58.376Z,-0.13
2022-12-08T01:22:25.975Z,-0.18
2022-12-08T01:24:53.047Z,-0.24
2022-12-08T01:27:20.326Z,-0.15
2022-12-08T01:29:47.662Z,-0.13
2022-12-08T01:32:14.974Z,-0.21
2022-12-08T01:34:41.979Z,-0.10
2022-12-08T01:37:09.331Z,-0.08
2022-12-08T01:39:36.376Z,-0.05
2022-12-08T01:42:03.869Z,-0.01
2022-12-08T01:44:30.887Z,-0.04
2022-12-08T01:46:58.389Z,0.01
2022-12-08T01:49:31.062Z,-0.20
2022-12-08T01:51:58.420Z,-0.22
2022-12-08T01:54:27.074Z,-0.15
2022-12-08T01:57:24.005Z,-0.10
2022-12-08T02:00:00.774Z,0.03
2022-12-08T02:02:31.340Z,-0.01
2022-12-08T02:04:58.601Z,0.16
2022-12-08T02:07:26.095Z,-0.02
2022-12-08T02:09:53.899Z,0.17
2022-12-08T02:12:21.273Z,0.20
2022-12-08T02:14:49.268Z,0.08
2022-12-08T02:17:25.830Z,0.03
2022-12-08T02:20:11.812Z,0.10
2022-12-08T02:22:58.071Z,0.03
2022-12-08T02:25:35.451Z,-0.01
2022-12-08T02:28:36.803Z,-0.03
2022-12-08T02:31:06.736Z,0.02
2022-12-08T02:33:37.064Z,-0.04
2022-12-08T02:36:10.411Z,-0.06
2022-12-08T02:38:56.358Z,-0.09
2022-12-08T02:41:32.332Z,0.04
2022-12-08T02:43:59.649Z,0.08
2022-12-08T02:46:35.717Z,0.04
2022-12-08T02:49:03.548Z,0.13
2022-12-08T02:51:30.681Z,0.13
2022-12-08T02:53:58.433Z,0.12
2022-12-08T02:56:50.817Z,0.26
2022-12-08T02:59:18.170Z,0.05
2022-12-08T03:01:51.545Z,0.24
2022-12-08T03:04:30.246Z,0.20
2022-12-08T03:07:06.521Z,0.17
2022-12-08T03:09:37.505Z,0.08
2022-12-08T03:12:22.639Z,0.02
2022-12-08T03:14:52.724Z,-0.20
2022-12-08T03:17:21.778Z,-0.03
2022-12-08T03:19:49.361Z,-0.11
2022-12-08T03:22:20.136Z,-0.08
2022-12-08T03:24:48.425Z,-0.10
2022-12-08T03:27:19.679Z,-0.11
2022-12-08T03:29:48.158Z,-0.07
2022-12-08T03:32:29.376Z,-0.12
2022-12-08T03:34:58.123Z,-0.19
2022-12-08T03:37:26.671Z,-0.05
2022-12-08T03:39:54.085Z,-0.13
2022-12-08T03:42:21.057Z,-0.12
2022-12-08T03:44:48.413Z,-0.06
2022-12-08T03:47:15.423Z,-0.01
2022-12-08T03:49:42.780Z,-0.03
2022-12-08T03:52:09.842Z,-0.07
2022-12-08T03:54:37.148Z,0.12
2022-12-08T03:57:04.155Z,0.02
2022-12-08T03:59:31.574Z,-0.03
2022-12-08T04:01:58.750Z,-0.11
2022-12-08T04:04:26.098Z,-0.13
2022-12-08T04:06:53.051Z,-0.08
2022-12-08T04:09:20.387Z,-0.03
2022-12-08T04:11:47.429Z,0.02
2022-12-08T04:14:14.846Z,0.05
2022-12-08T04:16:41.941Z,0.06
2022-12-08T04:19:09.257Z,0.01
2022-12-08T04:21:36.442Z,0.11
2022-12-08T04:24:03.819Z,0.10
2022-12-08T04:26:30.835Z,0.01
2022-12-08T04:28:58.261Z,0.04
2022-12-08T04:31:25.460Z,0.18
2022-12-08T04:33:52.796Z,0.17
2022-12-08T04:36:19.847Z,0.05
2022-12-08T04:38:47.225Z,-0.07
2022-12-08T04:41:14.240Z,0.06
2022-12-08T04:43:44.351Z,0.03
2022-12-08T04:46:11.629Z,0.13
2022-12-08T04:48:39.746Z,0.02
2022-12-08T04:51:07.396Z,-0.01
2022-12-08T04:53:34.772Z,0.13
2022-12-08T04:56:01.773Z,0.10
2022-12-08T04:58:29.128Z,0.08
2022-12-08T05:00:56.397Z,0.10
2022-12-08T05:03:28.507Z,-0.01
2022-12-08T05:05:55.937Z,0.02
2022-12-08T05:08:23.362Z,0.09
2022-12-08T05:10:50.335Z,0.10
2022-12-08T05:13:17.711Z,0.03
2022-12-08T05:15:44.696Z,0.09
2022-12-08T05:18:12.110Z,0.17
2022-12-08T05:20:39.105Z,-0.08
2022-12-08T05:23:06.583Z,-0.14
2022-12-08T05:25:33.611Z,-0.29
2022-12-08T05:28:24.676Z,-0.32
2022-12-08T05:30:47.931Z,-0.44
2022-12-08T05:33:15.280Z,-0.26
2022-12-08T05:35:42.988Z,-0.36
2022-12-08T05:38:11.780Z,-0.32
2022-12-08T05:40:39.276Z,-0.46
2022-12-08T05:43:06.935Z,-0.35
2022-12-08T05:45:34.000Z,-0.41
2022-12-08T05:48:01.588Z,-0.33
2022-12-08T05:50:28.698Z,-0.24
2022-12-08T05:52:57.642Z,-0.27
2022-12-08T05:55:24.619Z,-0.13
2022-12-08T05:57:52.107Z,-0.19
2022-12-08T06:00:19.392Z,-0.17
2022-12-08T06:02:46.896Z,-0.10
2022-12-08T06:05:14.211Z,-0.18
2022-12-08T06:07:41.633Z,-0.25
2022-12-08T06:10:08.944Z,-0.18
2022-12-08T06:12:36.197Z,-0.12
2022-12-08T06:15:03.657Z,-0.12
2022-12-08T06:17:31.175Z,-0.19
2022-12-08T06:19:58.198Z,-0.17
2022-12-08T06:22:25.564Z,-0.25
2022-12-08T06:24:52.774Z,-0.23
2022-12-08T06:27:20.088Z,-0.17
2022-12-08T06:29:47.052Z,-0.28
2022-12-08T06:32:14.532Z,-0.39
2022-12-08T06:34:41.628Z,-0.43
2022-12-08T06:37:08.902Z,-0.36
2022-12-08T06:39:35.885Z,-0.45
2022-12-08T06:42:21.875Z,-0.56
2022-12-08T06:44:48.879Z,-0.61
2022-12-08T06:47:16.147Z,-0.61
2022-12-08T06:49:43.198Z,-0.72
2022-12-08T06:52:10.574Z,-0.66
2022-12-08T06:54:37.595Z,-0.74
2022-12-08T06:57:04.829Z,-0.71
2022-12-08T06:59:32.042Z,-0.79
2022-12-08T07:01:59.428Z,-0.74
2022-12-08T07:04:26.429Z,-0.78
2022-12-08T07:06:53.816Z,-0.70
2022-12-08T07:09:20.814Z,-0.74
2022-12-08T07:11:48.291Z,-0.74
2022-12-08T07:14:15.355Z,-0.62
2022-12-08T07:16:42.742Z,-0.74
2022-12-08T07:19:09.741Z,-0.84
2022-12-08T07:21:37.163Z,-0.76
2022-12-08T07:24:04.389Z,-0.81
2022-12-08T07:26:31.833Z,-0.88
2022-12-08T07:28:59.779Z,-0.75
2022-12-08T07:31:28.757Z,-0.89
2022-12-08T07:33:56.761Z,-0.72
2022-12-08T07:36:24.639Z,-0.66
2022-12-08T07:38:53.879Z,-0.92
2022-12-08T07:41:25.644Z,-0.77
2022-12-08T07:43:53.893Z,-0.60
2022-12-08T07:46:22.130Z,-0.70
2022-12-08T07:48:49.254Z,-0.92
2022-12-08T07:51:18.025Z,-0.90
2022-12-08T07:53:51.624Z,-0.76
2022-12-08T07:56:21.112Z,-0.74
2022-12-08T07:58:48.259Z,-0.77
2022-12-08T08:01:34.633Z,-0.70
2022-12-08T08:04:04.474Z,-0.58
2022-12-08T08:06:34.250Z,-0.53
2022-12-08T08:09:01.337Z,-0.63
2022-12-08T08:11:28.817Z,-0.58
2022-12-08T08:13:56.368Z,-0.70
2022-12-08T08:16:23.851Z,-0.58
2022-12-08T08:18:51.236Z,-0.56
2022-12-08T08:24:07.322Z,-0.52
2022-12-08T08:26:34.753Z,-0.52
2022-12-08T08:29:01.876Z,-0.53
2022-12-08T08:31:29.339Z,-0.51
2022-12-08T08:33:57.050Z,-0.46
2022-12-08T08:36:27.243Z,-0.37
2022-12-08T08:38:54.439Z,-0.48
2022-12-08T08:41:21.874Z,-0.35
2022-12-08T08:43:48.896Z,-0.49
2022-12-08T08:46:16.855Z,-0.40
2022-12-08T08:48:43.975Z,-0.27
2022-12-08T08:51:13.090Z,-0.18
2022-12-08T08:53:41.062Z,-0.45
2022-12-08T08:56:12.720Z,-0.39
2022-12-08T08:58:41.160Z,-0.24
2022-12-08T09:01:08.716Z,-0.24
2022-12-08T09:03:35.834Z,-0.07
2022-12-08T09:06:03.248Z,-0.45
2022-12-08T09:08:31.782Z,-0.38
2022-12-08T09:10:59.660Z,-0.37
2022-12-08T09:13:26.806Z,-0.30
2022-12-08T09:15:54.159Z,-0.26
2022-12-08T09:18:21.411Z,-0.24
2022-12-08T09:20:48.832Z,-0.37
2022-12-08T09:23:15.963Z,-0.22
2022-12-08T09:25:46.677Z,-0.36
2022-12-08T09:28:14.630Z,-0.28
2022-12-08T09:30:42.290Z,-0.42
2022-12-08T09:33:09.375Z,-0.31
2022-12-08T09:35:36.807Z,-0.31
2022-12-08T09:38:04.985Z,-0.20
2022-12-08T09:40:35.208Z,-0.26
2022-12-08T09:43:11.038Z,-0.09
2022-12-08T09:45:38.903Z,-0.21
2022-12-08T09:48:10.680Z,-0.18
2022-12-08T09:50:40.983Z,-0.24
2022-12-08T09:53:21.383Z,-0.23
2022-12-08T09:56:12.919Z,-0.20
2022-12-08T09:58:48.581Z,-0.21
2022-12-08T10:01:16.613Z,-0.24
2022-12-08T10:03:43.885Z,-0.24
2022-12-08T10:06:29.952Z,-0.09
2022-12-08T10:09:00.049Z,-0.02
2022-12-08T10:11:32.340Z,0.12
2022-12-08T10:13:59.895Z,-0.10
2022-12-08T10:16:42.035Z,-0.06
2022-12-08T10:19:12.170Z,0.05
2022-12-08T10:21:40.717Z,-0.24
2022-12-08T10:24:15.063Z,0.01
2022-12-08T10:26:43.042Z,0.19
2022-12-08T10:29:12.950Z,-0.04
2022-12-08T10:31:40.424Z,0.04
2022-12-08T10:34:15.122Z,0.00
2022-12-08T10:36:51.108Z,0.17
2022-12-08T10:39:30.590Z,0.22
2022-12-08T10:42:16.538Z,-0.07
2022-12-08T10:44:54.974Z,-0.04
2022-12-08T10:47:23.384Z,-0.04
2022-12-08T10:50:07.126Z,-0.03
2022-12-08T10:52:39.121Z,-0.23
2022-12-08T10:55:19.468Z,-0.30
2022-12-08T10:57:49.191Z,-0.35
2022-12-08T11:00:18.420Z,-0.25
2022-12-08T11:02:53.772Z,-0.07
2022-12-08T11:05:22.018Z,-0.09
2022-12-08T11:07:54.060Z,-0.10
2022-12-08T11:10:27.145Z,-0.15
2022-12-08T11:12:55.298Z,-0.09
2022-12-08T11:15:22.461Z,-0.06
2022-12-08T11:17:59.655Z,0.07
2022-12-08T11:20:37.767Z,-0.06
2022-12-08T11:23:05.019Z,-0.13
2022-12-08T11:25:31.983Z,-0.09
2022-12-08T11:28:00.196Z,-0.07
2022-12-08T11:30:29.644Z,-0.12
2022-12-08T11:33:13.994Z,-0.22
2022-12-08T11:35:43.152Z,-0.07
2022-12-08T11:38:24.536Z,-0.31
2022-12-08T11:40:56.730Z,-0.41
2022-12-08T11:43:27.345Z,-0.35
2022-12-08T11:45:58.701Z,-0.41
2022-12-08T11:48:26.172Z,-0.52
2022-12-08T11:50:55.033Z,-0.57
2022-12-08T11:53:41.373Z,-0.71
2022-12-08T11:56:24.170Z,-0.64
2022-12-08T11:58:56.748Z,-0.64
2022-12-08T12:01:25.135Z,-0.45
2022-12-08T12:04:01.859Z,-0.57
2022-12-08T12:07:00.356Z,-0.58
2022-12-08T12:09:30.963Z,-0.49
2022-12-08T12:12:16.913Z,-0.50
2022-12-08T12:14:57.613Z,-0.36
2022-12-08T12:17:35.378Z,-0.69
2022-12-08T12:20:05.332Z,-0.38
2022-12-08T12:22:34.954Z,-0.31
2022-12-08T12:25:02.765Z,-0.48
2022-12-08T12:27:38.049Z,-0.22
2022-12-08T12:30:10.018Z,-0.15
2022-12-08T12:32:57.142Z,-0.48
2022-12-08T12:35:33.728Z,-0.50
2022-12-08T12:38:45.792Z,-0.39
2022-12-08T12:41:14.197Z,-0.44
2022-12-08T12:44:01.254Z,-0.50
2022-12-08T12:46:28.574Z,-0.45
2022-12-08T12:49:15.687Z,-0.32
2022-12-08T12:51:45.640Z,-0.40
2022-12-08T12:54:23.034Z,-0.43
2022-12-08T12:56:54.711Z,-0.42
2022-12-08T12:59:44.466Z,-0.58
2022-12-08T13:02:39.176Z,-0.59
2022-12-08T13:05:09.702Z,-0.59
2022-12-08T13:07:57.830Z,-0.61
2022-12-08T13:10:25.108Z,-0.65
2022-12-08T13:13:18.326Z,-0.76
2022-12-08T13:15:57.697Z,-0.55
2022-12-08T13:18:26.694Z,-0.84
2022-12-08T13:21:05.871Z,-0.58
2022-12-08T13:23:36.347Z,-0.53
2022-12-08T13:26:22.173Z,-0.64
2022-12-08T13:28:59.050Z,-0.64
2022-12-08T13:31:35.381Z,-0.55
2022-12-08T13:34:21.333Z,-0.56
2022-12-08T13:36:54.598Z,-0.51
2022-12-08T13:39:26.136Z,-0.34
2022-12-08T13:42:02.554Z,-0.37
2022-12-08T13:47:37.280Z,-0.42
2022-12-08T13:53:49.140Z,-0.19
2022-12-08T13:56:59.641Z,-0.27
2022-12-08T13:58:46.286Z,-0.35
2022-12-08T14:01:22.097Z,-0.25
2022-12-08T14:06:46.921Z,-0.36
2022-12-08T14:09:25.232Z,-0.29
2022-12-08T14:11:55.811Z,-0.27
2022-12-08T14:15:05.011Z,-0.19
2022-12-08T14:17:33.063Z,-0.18
2022-12-08T14:20:01.798Z,-0.12
2022-12-08T14:22:36.104Z,-0.25
2022-12-08T14:25:04.415Z,-0.26
2022-12-08T14:27:36.278Z,-0.29
2022-12-08T14:30:13.505Z,-0.24
2022-12-08T14:32:47.260Z,-0.21
2022-12-08T14:35:23.006Z,-0.33
2022-12-08T14:37:52.972Z,-0.28
2022-12-08T14:40:22.958Z,-0.23
2022-12-08T14:42:55.529Z,-0.28
2022-12-08T14:45:22.606Z,-0.21
2022-12-08T14:47:51.260Z,-0.25
2022-12-08T14:50:53.546Z,-0.31
2022-12-08T14:53:21.061Z,-0.26
2022-12-08T14:55:48.931Z,-0.26
2022-12-08T14:58:24.063Z,-0.24
2022-12-08T15:00:54.606Z,-0.23
2022-12-08T15:03:22.792Z,-0.26
2022-12-08T15:05:57.701Z,-0.29
2022-12-08T15:08:25.368Z,-0.32
2022-12-08T15:11:11.536Z,-0.34
2022-12-08T15:13:46.513Z,-0.37
2022-12-08T15:16:26.270Z,-0.30
2022-12-08T15:19:16.291Z,-0.25
2022-12-08T15:21:45.377Z,-0.39
2022-12-08T15:24:14.493Z,-0.36
2022-12-08T15:26:45.161Z,-0.30
2022-12-08T15:29:27.638Z,-0.37
2022-12-08T15:31:57.517Z,-0.42
2022-12-08T15:34:28.358Z,-0.36
2022-12-08T15:36:56.251Z,-0.27
2022-12-08T15:39:32.451Z,-0.44
2022-12-08T15:42:00.025Z,-0.56
2022-12-08T15:44:27.751Z,-0.44
2022-12-08T15:46:55.804Z,-0.35
2022-12-08T15:49:24.323Z,-0.27
2022-12-08T15:51:57.395Z,-0.21
2022-12-08T15:54:32.805Z,-0.16
2022-12-08T15:57:19.076Z,-0.20
2022-12-08T15:59:47.869Z,-0.27
2022-12-08T16:02:20.845Z,-0.25
2022-12-08T16:07:38.470Z,-0.43
2022-12-08T16:10:07.247Z,-0.38
2022-12-08T16:16:00.647Z,-0.31
2022-12-08T16:18:31.956Z,-0.38
2022-12-08T16:23:47.351Z,-0.22
2022-12-08T16:26:31.801Z,-0.19
2022-12-08T16:29:04.454Z,-0.26
2022-12-08T16:31:32.501Z,-0.17
2022-12-08T16:34:00.287Z,-0.27
2022-12-08T16:36:28.021Z,-0.13
2022-12-08T16:38:55.287Z,-0.11
2022-12-08T16:41:41.463Z,-0.18
2022-12-08T16:44:08.616Z,-0.15
2022-12-08T16:46:37.100Z,-0.09
2022-12-08T16:49:04.606Z,-0.10
2022-12-08T16:51:32.464Z,-0.18
2022-12-08T16:53:59.676Z,-0.14
2022-12-08T16:56:32.641Z,-0.04
2022-12-08T16:59:02.383Z,-0.18
2022-12-08T17:01:31.268Z,0.02
2022-12-08T17:04:30.935Z,-0.02
2022-12-08T17:06:47.273Z,-0.07
2022-12-08T17:09:14.723Z,0.01
2022-12-08T17:11:43.739Z,0.13
2022-12-08T17:14:12.637Z,0.25
2022-12-08T17:16:42.024Z,0.05
2022-12-08T17:19:09.942Z,0.12
2022-12-08T17:21:39.978Z,0.12
2022-12-08T17:24:07.766Z,0.21
2022-12-08T17:26:35.740Z,0.11
2022-12-08T17:29:03.955Z,0.19
2022-12-08T17:31:32.607Z,0.15
2022-12-08T17:34:02.398Z,0.31
2022-12-08T17:37:07.665Z,0.35
2022-12-08T17:39:35.484Z,0.32
2022-12-08T17:42:02.904Z,0.31
2022-12-08T17:44:31.166Z,0.31
2022-12-08T17:46:58.571Z,0.36
2022-12-08T17:49:27.168Z,0.37
2022-12-08T17:51:55.360Z,0.37
2022-12-08T17:54:22.944Z,0.37
2022-12-08T17:56:50.513Z,0.39
2022-12-08T17:59:18.555Z,0.42
2022-12-08T18:01:45.941Z,0.36
2022-12-08T18:04:13.583Z,0.32
2022-12-08T18:06:41.118Z,0.45
2022-12-08T18:09:08.882Z,0.49
2022-12-08T18:11:36.550Z,0.43
2022-12-08T18:14:10.030Z,0.50
2022-12-08T18:16:39.212Z,0.47
2022-12-08T18:19:07.611Z,0.59
2022-12-08T18:21:35.442Z,0.43
2022-12-08T18:24:03.246Z,0.48
2022-12-08T18:26:31.221Z,0.44
2022-12-08T18:29:11.323Z,0.50
2022-12-08T18:31:40.175Z,0.55
2022-12-08T18:34:12.603Z,0.42
2022-12-08T18:37:06.512Z,0.50
2022-12-08T18:40:10.114Z,0.46
2022-12-08T18:42:44.578Z,0.43
2022-12-08T18:45:25.020Z,0.47
2022-12-08T18:47:52.780Z,0.54
2022-12-08T18:50:20.007Z,0.48
2022-12-08T18:52:52.316Z,0.44
2022-12-08T18:55:27.256Z,0.43
2022-12-08T18:57:56.118Z,0.56
2022-12-08T19:00:23.663Z,0.55
2022-12-08T19:02:52.056Z,0.63
2022-12-08T19:05:20.123Z,0.63
2022-12-08T19:07:48.380Z,0.73
2022-12-08T19:10:15.928Z,0.60
2022-12-08T19:12:44.194Z,0.60
2022-12-08T19:15:12.316Z,0.62
2022-12-08T19:17:41.079Z,0.64
2022-12-08T19:20:09.466Z,0.64
2022-12-08T19:22:37.842Z,0.66
2022-12-08T19:25:10.869Z,0.67
2022-12-08T19:27:39.428Z,0.76
2022-12-08T19:30:10.381Z,0.77
2022-12-08T19:32:39.009Z,0.73
2022-12-08T19:35:07.676Z,0.63
2022-12-08T19:37:35.954Z,0.93
2022-12-08T19:40:23.732Z,0.83
2022-12-08T19:43:11.420Z,0.96
2022-12-08T19:45:39.654Z,0.90
2022-12-08T19:48:08.332Z,0.97
2022-12-08T19:50:39.963Z,1.04
2022-12-08T19:53:12.295Z,1.04
2022-12-08T19:55:40.457Z,1.08
2022-12-08T19:58:10.531Z,0.97
2022-12-08T20:00:40.892Z,0.93
2022-12-08T20:03:09.078Z,1.15
2022-12-08T20:05:37.154Z,1.10
2022-12-08T20:08:04.830Z,0.93
2022-12-08T20:10:34.050Z,0.90
2022-12-08T20:13:20.882Z,1.02
2022-12-08T20:15:48.833Z,0.82
2022-12-08T20:18:17.579Z,0.69
2022-12-08T20:20:46.059Z,0.83
2022-12-08T20:23:14.554Z,0.84
2022-12-08T20:25:42.712Z,0.85
2022-12-08T20:28:11.124Z,0.80
2022-12-08T20:30:39.556Z,0.78
2022-12-08T20:33:07.157Z,0.61
2022-12-08T20:35:34.672Z,0.66
2022-12-08T20:38:02.795Z,0.54
2022-12-08T20:40:29.875Z,0.30
2022-12-08T20:42:57.720Z,0.43
2022-12-08T20:45:25.044Z,0.31
2022-12-08T20:47:52.751Z,-0.06
2022-12-08T20:50:20.504Z,0.19
2022-12-08T20:52:48.226Z,0.02
2022-12-08T20:55:15.703Z,0.07
2022-12-08T20:57:43.575Z,-0.02
2022-12-08T21:00:11.562Z,-0.06
2022-12-08T21:02:45.071Z,-0.15
2022-12-08T21:05:14.699Z,0.02
2022-12-08T21:07:42.722Z,0.17
2022-12-08T21:10:11.004Z,0.18
2022-12-08T21:12:38.896Z,0.14
2022-12-08T21:15:11.456Z,0.26
2022-12-08T21:17:39.465Z,0.34
2022-12-08T21:20:07.497Z,0.09
2022-12-08T21:22:35.539Z,0.25
2022-12-08T21:25:03.301Z,0.26
2022-12-08T21:27:31.395Z,0.19
2022-12-08T21:29:58.846Z,0.18
2022-12-08T21:32:30.383Z,0.23
2022-12-08T21:34:58.338Z,0.22
2022-12-08T21:37:26.497Z,0.28
2022-12-08T21:39:54.098Z,0.29
2022-12-08T21:42:40.026Z,0.35
2022-12-08T21:45:07.457Z,0.38
2022-12-08T21:47:35.205Z,0.28
2022-12-08T21:50:02.855Z,0.10
2022-12-08T21:52:30.957Z,0.19
2022-12-08T21:54:58.321Z,0.07
2022-12-08T21:57:25.994Z,-0.23
2022-12-08T21:59:53.768Z,-0.17
2022-12-08T22:02:22.767Z,-0.26
2022-12-08T22:04:50.687Z,-0.06
2022-12-08T22:07:19.338Z,-0.29
2022-12-08T22:09:46.529Z,-0.35
2022-12-08T22:12:16.874Z,-0.27
2022-12-08T22:14:44.528Z,-0.27
2022-12-08T22:17:12.343Z,-0.33
2022-12-08T22:19:44.668Z,-0.16
2022-12-08T22:22:12.185Z,-0.12
2022-12-08T22:24:39.539Z,-0.13
2022-12-08T22:27:07.470Z,-0.16
2022-12-08T22:29:34.848Z,-0.03
2022-12-08T22:32:02.735Z,-0.19
2022-12-08T22:34:30.083Z,-0.08
2022-12-08T22:36:57.710Z,-0.34
2022-12-08T22:39:24.907Z,-0.34
2022-12-08T22:41:52.703Z,-0.27
2022-12-08T22:44:20.756Z,-0.28
2022-12-08T22:46:49.150Z,-0.24
2022-12-08T22:49:16.396Z,-0.21
2022-12-08T22:51:43.956Z,-0.31
2022-12-08T22:54:11.806Z,-0.40
2022-12-08T22:56:40.376Z,-0.32
2022-12-08T22:59:08.017Z,-0.19
2022-12-08T23:01:35.574Z,-0.26
2022-12-08T23:04:03.133Z,-0.27
2022-12-08T23:06:31.125Z,-0.22
2022-12-08T23:08:59.261Z,-0.30
2022-12-08T23:11:28.740Z,-0.19
2022-12-08T23:13:59.965Z,-0.26
2022-12-08T23:16:27.929Z,-0.37
2022-12-08T23:18:55.461Z,-0.60
2022-12-08T23:21:59.693Z,-0.89
2022-12-08T23:24:27.281Z,-0.89
2022-12-08T23:26:54.480Z,-0.79
2022-12-08T23:29:21.849Z,-0.86
2022-12-08T23:31:49.037Z,-0.88
2022-12-08T23:34:16.448Z,-1.04
2022-12-08T23:36:43.833Z,-1.07
2022-12-08T23:39:11.420Z,-1.33
2022-12-08T23:41:38.712Z,-1.44
2022-12-08T23:44:06.630Z,-1.45
2022-12-08T23:46:33.695Z,-1.57
2022-12-08T23:49:01.122Z,-1.71
2022-12-08T23:51:28.198Z,-1.61
2022-12-08T23:53:55.687Z,-1.76
2022-12-08T23:56:26.982Z,-1.59
2022-12-08T23:58:57.572Z,-1.51
